createdAt,value
2018-07-27T00:02:26.414Z,97.80
2018-07-27T00:04:54.617Z,98.40
2018-07-27T00:07:22.845Z,98.40
2018-07-27T00:09:51.041Z,98.60
2018-07-27T00:12:19.451Z,98.90
2018-07-27T00:17:15.581Z,99.80
2018-07-27T00:22:12.109Z,99.90
2018-07-27T00:24:40.329Z,99.90
2018-07-27T00:27:08.557Z,99.90
2018-07-27T00:29:36.759Z,99.90
2018-07-27T00:32:04.952Z,99.90
2018-07-27T00:34:33.250Z,99.80
2018-07-27T00:37:01.523Z,99.60
2018-07-27T00:39:29.761Z,99.50
2018-07-27T00:44:26.195Z,99.30
2018-07-27T00:46:54.529Z,99.40
2018-07-27T00:49:22.706Z,99.50
2018-07-27T00:51:51.169Z,99.50
2018-07-27T00:54:19.370Z,99.50
2018-07-27T00:56:47.599Z,99.50
2018-07-27T00:59:15.816Z,99.50
2018-07-27T01:01:44.066Z,99.90
2018-07-27T01:04:12.366Z,99.90
2018-07-27T01:06:40.769Z,99.90
2018-07-27T01:09:10.016Z,99.90
2018-07-27T01:11:38.293Z,99.90
2018-07-27T01:14:06.921Z,99.90
2018-07-27T01:16:35.325Z,99.90
2018-07-27T01:19:03.733Z,99.90
2018-07-27T01:21:31.983Z,99.90
2018-07-27T01:24:00.224Z,99.90
2018-07-27T01:26:28.546Z,99.90
2018-07-27T01:28:56.869Z,99.90
2018-07-27T01:31:25.106Z,99.90
2018-07-27T01:33:53.369Z,99.90
2018-07-27T01:36:21.697Z,99.90
2018-07-27T01:38:50.095Z,99.90
2018-07-27T01:41:18.309Z,99.90
2018-07-27T01:46:14.469Z,99.90
2018-07-27T01:48:42.689Z,99.90
2018-07-27T01:51:10.922Z,99.90
2018-07-27T01:53:39.145Z,99.90
2018-07-27T01:56:07.382Z,99.90
2018-07-27T01:58:35.589Z,99.90
2018-07-27T02:01:03.809Z,99.90
2018-07-27T02:06:00.263Z,99.90
2018-07-27T02:08:28.418Z,99.90
2018-07-27T02:10:56.650Z,99.90
2018-07-27T02:13:25.141Z,99.90
2018-07-27T02:15:53.329Z,99.90
2018-07-27T02:18:21.558Z,99.90
2018-07-27T02:20:49.776Z,99.90
2018-07-27T02:23:18.003Z,99.90
2018-07-27T02:25:46.397Z,99.90
2018-07-27T02:28:14.587Z,99.90
2018-07-27T02:30:42.794Z,99.90
2018-07-27T02:33:11.003Z,99.90
2018-07-27T02:35:39.205Z,99.90
2018-07-27T02:38:07.716Z,99.90
2018-07-27T02:40:35.902Z,99.90
2018-07-27T02:43:04.155Z,99.90
2018-07-27T02:45:32.418Z,99.90
2018-07-27T02:48:00.617Z,99.90
2018-07-27T02:50:28.852Z,99.90
2018-07-27T02:52:57.077Z,99.90
2018-07-27T02:55:25.286Z,99.90
2018-07-27T02:57:53.498Z,99.90
2018-07-27T03:00:21.721Z,99.90
2018-07-27T03:02:49.945Z,99.90
2018-07-27T03:05:18.146Z,99.90
2018-07-27T03:07:46.358Z,99.90
2018-07-27T03:10:14.569Z,99.90
2018-07-27T03:12:42.797Z,99.90
2018-07-27T03:15:11.025Z,99.90
2018-07-27T03:17:39.245Z,99.90
2018-07-27T03:20:07.660Z,99.90
2018-07-27T03:22:35.886Z,99.90
2018-07-27T03:25:04.564Z,99.90
2018-07-27T03:27:32.792Z,99.90
2018-07-27T03:30:00.984Z,99.90
2018-07-27T03:32:29.209Z,99.90
2018-07-27T03:34:57.422Z,99.90
2018-07-27T03:37:25.717Z,99.90
2018-07-27T03:39:53.964Z,99.90
2018-07-27T03:42:22.473Z,99.90
2018-07-27T03:44:50.743Z,99.90
2018-07-27T03:47:18.942Z,99.90
2018-07-27T03:49:47.197Z,99.90
2018-07-27T03:52:15.447Z,99.90
2018-07-27T03:54:43.843Z,99.90
2018-07-27T03:57:12.070Z,99.90
2018-07-27T04:02:08.456Z,99.90
2018-07-27T04:04:36.667Z,99.90
2018-07-27T04:07:05.095Z,99.90
2018-07-27T04:09:33.372Z,99.90
2018-07-27T04:12:01.618Z,99.90
2018-07-27T04:14:29.862Z,99.90
2018-07-27T04:16:58.060Z,99.90
2018-07-27T04:19:26.273Z,99.90
2018-07-27T04:21:54.557Z,99.90
2018-07-27T04:24:22.812Z,99.90
2018-07-27T04:26:51.189Z,99.90
2018-07-27T04:29:19.454Z,99.90
2018-07-27T04:34:15.636Z,99.90
2018-07-27T04:36:43.846Z,99.90
2018-07-27T04:39:12.520Z,99.90
2018-07-27T04:41:40.833Z,99.90
2018-07-27T04:44:09.152Z,99.90
2018-07-27T04:46:37.423Z,99.90
2018-07-27T04:49:06.027Z,99.90
2018-07-27T04:51:34.253Z,99.90
2018-07-27T04:56:30.741Z,99.90
2018-07-27T05:01:26.930Z,99.90
2018-07-27T05:03:55.278Z,99.90
2018-07-27T05:06:23.517Z,99.90
2018-07-27T05:08:57.017Z,99.90
2018-07-27T05:11:25.360Z,99.90
2018-07-27T05:13:53.562Z,99.90
2018-07-27T05:16:21.760Z,99.90
2018-07-27T05:18:49.978Z,99.90
2018-07-27T05:21:18.224Z,99.90
2018-07-27T05:23:46.421Z,99.90
2018-07-27T05:26:14.674Z,99.90
2018-07-27T05:28:42.857Z,99.90
2018-07-27T05:31:11.072Z,99.90
2018-07-27T05:36:07.338Z,99.90
2018-07-27T05:38:35.568Z,99.90
2018-07-27T05:41:03.778Z,99.90
2018-07-27T05:43:31.985Z,99.90
2018-07-27T05:46:00.266Z,99.90
2018-07-27T05:48:28.477Z,99.90
2018-07-27T05:50:56.686Z,99.90
2018-07-27T05:53:24.925Z,99.90
2018-07-27T05:55:53.398Z,99.90
2018-07-27T05:58:21.622Z,99.90
2018-07-27T06:00:49.841Z,99.90
2018-07-27T06:03:18.057Z,99.90
2018-07-27T06:05:46.274Z,99.90
2018-07-27T06:08:15.462Z,99.90
2018-07-27T06:10:43.718Z,99.90
2018-07-27T06:13:11.962Z,99.90
2018-07-27T06:15:40.169Z,99.90
2018-07-27T06:18:09.055Z,99.90
2018-07-27T06:20:37.151Z,99.90
2018-07-27T06:23:05.377Z,99.90
2018-07-27T06:25:33.625Z,99.90
2018-07-27T06:28:01.829Z,99.90
2018-07-27T06:30:30.070Z,99.90
2018-07-27T06:32:58.276Z,99.90
2018-07-27T06:35:26.485Z,99.90
2018-07-27T06:37:54.689Z,99.70
2018-07-27T06:40:23.026Z,99.10
2018-07-27T06:42:51.273Z,98.20
2018-07-27T06:45:19.569Z,98.20
2018-07-27T06:47:47.976Z,97.70
2018-07-27T06:50:16.182Z,96.80
2018-07-27T06:52:44.430Z,95.80
2018-07-27T06:55:12.685Z,95.40
2018-07-27T06:57:40.897Z,95.30
2018-07-27T07:00:09.137Z,95.20
2018-07-27T07:02:37.469Z,95.40
2018-07-27T07:05:06.318Z,94.60
2018-07-27T07:07:34.529Z,94.00
2018-07-27T07:10:02.756Z,93.90
2018-07-27T07:12:30.985Z,93.30
2018-07-27T07:14:59.189Z,93.10
2018-07-27T07:17:27.409Z,93.10
2018-07-27T07:19:55.606Z,93.10
2018-07-27T07:22:23.823Z,92.50
2018-07-27T07:27:20.223Z,90.40
2018-07-27T07:29:48.426Z,89.90
2018-07-27T07:32:16.834Z,89.60
2018-07-27T07:34:45.037Z,89.10
2018-07-27T07:37:13.245Z,88.70
2018-07-27T07:39:41.445Z,88.10
2018-07-27T07:42:09.661Z,86.80
2018-07-27T07:44:37.886Z,86.80
2018-07-27T07:47:06.146Z,87.10
2018-07-27T07:49:34.353Z,87.30
2018-07-27T07:52:02.597Z,86.10
2018-07-27T07:54:30.803Z,86.50
2018-07-27T07:56:59.003Z,86.60
2018-07-27T07:59:27.197Z,85.50
2018-07-27T08:01:55.423Z,85.70
2018-07-27T08:06:51.822Z,82.60
2018-07-27T08:09:20.318Z,82.00
2018-07-27T08:11:49.286Z,82.80
2018-07-27T08:14:17.673Z,83.30
2018-07-27T08:16:45.886Z,83.80
2018-07-27T08:19:14.285Z,84.00
2018-07-27T08:21:42.521Z,84.40
2018-07-27T08:24:10.709Z,84.70
2018-07-27T08:27:01.085Z,84.90
2018-07-27T08:29:32.821Z,83.10
2018-07-27T08:32:01.367Z,83.30
2018-07-27T08:34:29.807Z,82.60
2018-07-27T08:36:58.027Z,80.40
2018-07-27T08:39:27.416Z,80.10
2018-07-27T08:41:55.673Z,80.70
2018-07-27T08:44:27.062Z,80.70
2018-07-27T08:49:23.230Z,78.10
2018-07-27T08:51:51.457Z,78.00
2018-07-27T08:54:19.701Z,77.80
2018-07-27T08:56:47.956Z,76.00
2018-07-27T08:59:16.174Z,78.80
2018-07-27T09:01:44.525Z,81.00
2018-07-27T09:04:12.843Z,76.00
2018-07-27T09:06:41.131Z,76.20
2018-07-27T09:09:11.865Z,74.10
2018-07-27T09:11:40.212Z,72.90
2018-07-27T09:14:08.398Z,73.00
2018-07-27T09:16:36.630Z,74.40
2018-07-27T09:19:05.004Z,75.20
2018-07-27T09:21:33.205Z,75.70
2018-07-27T09:24:01.517Z,77.00
2018-07-27T09:26:29.734Z,76.40
2018-07-27T09:28:57.955Z,75.50
2018-07-27T09:31:26.429Z,73.90
2018-07-27T09:33:54.727Z,73.90
2018-07-27T09:36:22.942Z,74.30
2018-07-27T09:38:51.156Z,74.70
2018-07-27T09:41:19.366Z,73.90
2018-07-27T09:43:47.581Z,73.10
2018-07-27T09:46:15.765Z,72.90
2018-07-27T09:48:48.242Z,73.60
2018-07-27T09:51:16.457Z,73.00
2018-07-27T09:53:44.677Z,71.20
2018-07-27T09:56:13.314Z,72.90
2018-07-27T09:58:41.509Z,73.80
2018-07-27T10:01:13.977Z,74.30
2018-07-27T10:03:42.175Z,73.70
2018-07-27T10:06:10.448Z,73.50
2018-07-27T10:08:39.186Z,72.60
2018-07-27T10:11:07.372Z,71.20
2018-07-27T10:13:35.569Z,71.10
2018-07-27T10:16:03.821Z,68.90
2018-07-27T10:21:00.231Z,70.00
2018-07-27T10:23:28.413Z,70.50
2018-07-27T10:25:56.610Z,71.60
2018-07-27T10:28:24.817Z,71.40
2018-07-27T10:30:53.026Z,69.90
2018-07-27T10:33:21.229Z,69.30
2018-07-27T10:35:49.433Z,68.60
2018-07-27T10:38:18.088Z,67.30
2018-07-27T10:40:46.413Z,67.90
2018-07-27T10:43:14.625Z,65.60
2018-07-27T10:45:42.866Z,66.00
2018-07-27T10:48:11.245Z,65.60
2018-07-27T10:50:39.438Z,64.70
2018-07-27T10:53:07.652Z,62.00
2018-07-27T10:55:35.873Z,61.00
2018-07-27T10:58:04.173Z,58.20
2018-07-27T11:00:32.524Z,56.20
2018-07-27T11:03:00.985Z,54.70
2018-07-27T11:05:29.309Z,55.20
2018-07-27T11:07:57.560Z,53.10
2018-07-27T11:10:25.799Z,51.20
2018-07-27T11:12:54.045Z,50.50
2018-07-27T11:15:22.393Z,48.10
2018-07-27T11:17:50.653Z,45.60
2018-07-27T11:20:18.933Z,42.40
2018-07-27T11:22:47.505Z,40.00
2018-07-27T11:25:15.909Z,38.30
2018-07-27T11:27:44.166Z,36.80
2018-07-27T11:30:12.443Z,35.80
2018-07-27T11:32:40.733Z,34.70
2018-07-27T11:35:08.977Z,31.50
2018-07-27T11:37:37.310Z,29.40
2018-07-27T11:40:06.372Z,27.80
2018-07-27T11:42:34.651Z,26.50
2018-07-27T11:45:03.034Z,25.80
2018-07-27T11:47:31.466Z,25.20
2018-07-27T11:49:59.711Z,25.80
2018-07-27T11:52:28.065Z,24.80
2018-07-27T11:54:56.549Z,24.70
2018-07-27T11:57:24.761Z,24.80
2018-07-27T11:59:53.032Z,24.30
2018-07-27T12:02:21.403Z,24.00
2018-07-27T12:04:49.977Z,22.60
2018-07-27T12:07:18.334Z,22.00
2018-07-27T12:09:46.608Z,21.20
2018-07-27T12:12:14.902Z,21.10
2018-07-27T12:14:43.304Z,20.10
2018-07-27T12:17:11.540Z,19.60
2018-07-27T12:19:39.762Z,19.20
2018-07-27T12:22:08.021Z,19.70
2018-07-27T12:24:37.518Z,20.60
2018-07-27T12:27:05.900Z,21.10
2018-07-27T12:29:34.190Z,20.90
2018-07-27T12:32:03.595Z,19.40
2018-07-27T12:34:31.817Z,18.90
2018-07-27T12:37:00.111Z,18.50
2018-07-27T12:39:28.387Z,18.30
2018-07-27T12:41:56.669Z,18.00
2018-07-27T12:44:24.942Z,17.60
2018-07-27T12:46:53.171Z,17.50
2018-07-27T12:49:21.849Z,18.20
2018-07-27T12:51:50.120Z,19.00
2018-07-27T12:56:46.595Z,20.90
2018-07-27T13:01:42.798Z,19.10
2018-07-27T13:04:11.129Z,18.50
2018-07-27T13:09:08.693Z,17.50
2018-07-27T13:11:37.073Z,17.40
2018-07-27T13:14:05.590Z,17.00
2018-07-27T13:16:33.874Z,16.60
2018-07-27T13:19:02.135Z,16.40
2018-07-27T13:21:30.397Z,16.10
2018-07-27T13:24:01.795Z,16.00
2018-07-27T13:26:30.485Z,16.00
2018-07-27T13:28:58.823Z,16.10
2018-07-27T13:31:48.791Z,16.00
2018-07-27T13:37:17.985Z,15.70
2018-07-27T13:39:47.022Z,15.60
2018-07-27T13:42:16.509Z,15.60
2018-07-27T13:44:44.980Z,15.40
2018-07-27T13:47:13.490Z,15.40
2018-07-27T13:49:41.787Z,15.40
2018-07-27T13:52:10.066Z,15.60
2018-07-27T13:54:38.418Z,16.20
2018-07-27T13:57:06.654Z,16.00
2018-07-27T14:02:03.042Z,15.70
2018-07-27T14:04:31.317Z,15.50
2018-07-27T14:07:00.898Z,15.20
2018-07-27T14:09:29.333Z,15.20
2018-07-27T14:11:58.153Z,15.20
2018-07-27T14:16:54.450Z,14.80
2018-07-27T14:19:22.981Z,14.80
2018-07-27T14:24:19.555Z,14.70
2018-07-27T14:26:47.876Z,14.60
2018-07-27T14:29:16.145Z,14.20
2018-07-27T14:31:44.494Z,14.20
2018-07-27T14:34:12.762Z,14.20
2018-07-27T14:36:41.026Z,14.20
2018-07-27T14:39:12.132Z,14.20
2018-07-27T14:41:40.672Z,14.20
2018-07-27T14:44:08.986Z,14.40
2018-07-27T14:46:37.725Z,14.30
2018-07-27T14:49:10.393Z,14.10
2018-07-27T14:51:38.939Z,14.00
2018-07-27T14:54:08.117Z,14.00
2018-07-27T14:56:36.399Z,14.30
2018-07-27T14:59:04.679Z,14.30
2018-07-27T15:01:32.968Z,14.00
2018-07-27T15:04:01.312Z,13.70
2018-07-27T15:06:29.552Z,13.70
2018-07-27T15:08:57.733Z,13.90
2018-07-27T15:16:22.314Z,13.50
2018-07-27T15:18:50.454Z,13.60
2018-07-27T15:21:18.949Z,13.60
2018-07-27T15:23:47.314Z,13.60
2018-07-27T15:26:15.525Z,13.60
2018-07-27T15:28:43.996Z,13.60
2018-07-27T15:31:12.190Z,13.50
2018-07-27T15:33:40.401Z,13.50
2018-07-27T15:36:08.652Z,13.60
2018-07-27T15:38:36.925Z,13.70
2018-07-27T15:43:33.165Z,13.90
2018-07-27T15:46:01.414Z,13.90
2018-07-27T15:48:29.761Z,13.90
2018-07-27T15:50:57.924Z,13.80
2018-07-27T15:53:26.145Z,13.70
2018-07-27T15:55:54.393Z,13.70
2018-07-27T15:58:22.627Z,13.60
2018-07-27T16:00:50.885Z,13.70
2018-07-27T16:03:19.125Z,13.60
2018-07-27T16:05:47.653Z,13.70
2018-07-27T16:08:16.285Z,13.60
2018-07-27T16:10:44.557Z,13.80
2018-07-27T16:13:12.810Z,14.00
2018-07-27T16:15:41.058Z,14.10
2018-07-27T16:18:09.253Z,14.30
2018-07-27T16:20:37.529Z,14.30
2018-07-27T16:25:33.834Z,14.50
2018-07-27T16:28:02.085Z,14.50
2018-07-27T16:30:30.305Z,14.50
2018-07-27T16:32:58.725Z,14.50
2018-07-27T16:35:26.922Z,14.70
2018-07-27T16:37:55.186Z,14.60
2018-07-27T16:40:23.422Z,14.90
2018-07-27T16:42:51.782Z,14.90
2018-07-27T16:45:20.011Z,15.10
2018-07-27T16:47:48.233Z,15.00
2018-07-27T16:50:16.601Z,15.00
2018-07-27T16:52:45.013Z,15.00
2018-07-27T16:55:13.270Z,15.30
2018-07-27T16:57:41.706Z,16.50
2018-07-27T17:00:09.918Z,17.00
2018-07-27T17:02:38.149Z,17.30
2018-07-27T17:05:06.474Z,18.20
2018-07-27T17:07:34.705Z,19.60
2018-07-27T17:10:03.090Z,20.90
2018-07-27T17:12:31.453Z,22.40
2018-07-27T17:14:59.664Z,23.40
2018-07-27T17:17:27.990Z,24.50
2018-07-27T17:19:56.498Z,25.20
2018-07-27T17:22:24.828Z,26.20
2018-07-27T17:27:21.025Z,27.30
2018-07-27T17:29:49.218Z,28.00
2018-07-27T17:32:17.466Z,28.50
2018-07-27T17:34:45.951Z,28.90
2018-07-27T17:37:14.178Z,29.20
2018-07-27T17:42:10.380Z,30.00
2018-07-27T17:44:38.606Z,30.50
2018-07-27T17:47:07.181Z,31.10
2018-07-27T17:49:35.413Z,31.20
2018-07-27T17:52:03.966Z,31.50
2018-07-27T17:54:32.207Z,32.00
2018-07-27T17:57:00.461Z,32.70
2018-07-27T17:59:28.681Z,33.20
2018-07-27T18:01:56.904Z,33.90
2018-07-27T18:04:25.105Z,34.40
2018-07-27T18:06:53.338Z,34.80
2018-07-27T18:09:21.529Z,36.00
2018-07-27T18:11:49.798Z,35.80
2018-07-27T18:14:18.241Z,36.00
2018-07-27T18:16:46.757Z,36.50
2018-07-27T18:19:14.947Z,37.00
2018-07-27T18:21:43.172Z,37.50
2018-07-27T18:24:11.435Z,38.20
2018-07-27T18:26:39.672Z,38.50
2018-07-27T18:29:08.033Z,39.10
2018-07-27T18:31:36.274Z,39.40
2018-07-27T18:34:04.545Z,40.30
2018-07-27T18:36:32.761Z,40.50
2018-07-27T18:39:01.263Z,40.90
2018-07-27T18:41:29.499Z,41.10
2018-07-27T18:43:57.708Z,41.30
2018-07-27T18:46:25.923Z,41.60
2018-07-27T18:48:54.145Z,41.80
2018-07-27T18:51:22.349Z,42.00
2018-07-27T18:53:50.593Z,42.40
2018-07-27T18:56:18.909Z,42.80
2018-07-27T18:58:47.053Z,43.20
2018-07-27T19:01:18.825Z,43.70
2018-07-27T19:03:47.063Z,44.20
2018-07-27T19:06:15.330Z,44.60
2018-07-27T19:08:43.567Z,45.10
2018-07-27T19:11:12.701Z,45.30
2018-07-27T19:13:40.921Z,45.70
2018-07-27T19:16:10.028Z,46.20
2018-07-27T19:18:38.533Z,46.60
2018-07-27T19:21:06.759Z,47.30
2018-07-27T19:23:35.155Z,47.70
2018-07-27T19:26:03.363Z,48.00
2018-07-27T19:28:31.820Z,48.40
2018-07-27T19:31:00.040Z,48.70
2018-07-27T19:33:28.298Z,49.00
2018-07-27T19:35:56.521Z,49.30
2018-07-27T19:38:24.777Z,49.70
2018-07-27T19:40:53.002Z,49.80
2018-07-27T19:43:21.230Z,50.10
2018-07-27T19:45:49.665Z,50.20
2018-07-27T19:48:17.885Z,50.70
2018-07-27T19:50:46.166Z,50.90
2018-07-27T19:53:14.395Z,51.10
2018-07-27T19:55:42.801Z,51.40
2018-07-27T19:58:11.030Z,51.70
2018-07-27T20:00:39.253Z,51.90
2018-07-27T20:03:07.486Z,52.00
2018-07-27T20:05:35.730Z,52.20
2018-07-27T20:08:04.213Z,52.30
2018-07-27T20:10:32.486Z,52.70
2018-07-27T20:13:00.717Z,53.30
2018-07-27T20:15:28.962Z,53.50
2018-07-27T20:17:57.278Z,54.00
2018-07-27T20:20:25.506Z,53.90
2018-07-27T20:22:54.040Z,53.90
2018-07-27T20:25:22.233Z,54.10
2018-07-27T20:27:50.646Z,54.20
2018-07-27T20:30:18.882Z,54.40
2018-07-27T20:32:47.105Z,54.70
2018-07-27T20:35:15.493Z,54.70
2018-07-27T20:37:43.702Z,54.70
2018-07-27T20:40:11.975Z,55.10
2018-07-27T20:42:40.333Z,55.20
2018-07-27T20:45:08.559Z,55.80
2018-07-27T20:47:37.217Z,55.90
2018-07-27T20:50:06.110Z,56.20
2018-07-27T20:52:34.314Z,56.60
2018-07-27T20:59:37.970Z,57.20
2018-07-27T21:02:06.498Z,58.30
2018-07-27T21:04:34.782Z,59.00
2018-07-27T21:07:03.014Z,59.50
2018-07-27T21:09:36.695Z,60.20
2018-07-27T21:12:04.921Z,60.80
2018-07-27T21:14:33.126Z,61.30
2018-07-27T21:17:01.346Z,62.40
2018-07-27T21:19:29.550Z,63.60
2018-07-27T21:21:57.858Z,65.00
2018-07-27T21:24:26.175Z,65.90
2018-07-27T21:26:54.397Z,66.90
2018-07-27T21:29:22.649Z,68.40
2018-07-27T21:31:50.890Z,70.40
2018-07-27T21:34:19.913Z,70.80
2018-07-27T21:36:48.121Z,72.30
2018-07-27T21:39:16.357Z,73.40
2018-07-27T21:41:44.602Z,74.60
2018-07-27T21:46:40.819Z,77.10
2018-07-27T21:49:09.077Z,78.30
2018-07-27T21:51:37.356Z,79.40
2018-07-27T21:54:05.567Z,80.50
2018-07-27T21:59:01.823Z,82.10
2018-07-27T22:01:30.058Z,82.90
2018-07-27T22:03:58.274Z,83.80
2018-07-27T22:06:26.517Z,83.60
2018-07-27T22:08:54.741Z,83.30
2018-07-27T22:11:23.011Z,83.90
2018-07-27T22:13:51.392Z,84.40
2018-07-27T22:18:47.597Z,85.70
2018-07-27T22:21:15.983Z,85.50
2018-07-27T22:23:44.213Z,86.10
2018-07-27T22:26:12.397Z,85.80
2018-07-27T22:28:40.633Z,85.40
2018-07-27T22:31:08.910Z,85.80
2018-07-27T22:33:37.138Z,86.40
2018-07-27T22:36:05.396Z,86.90
2018-07-27T22:38:33.645Z,87.60
2018-07-27T22:41:01.908Z,89.00
2018-07-27T22:43:30.420Z,89.30
2018-07-27T22:45:58.682Z,90.00
2018-07-27T22:48:26.910Z,90.00
2018-07-27T22:50:55.219Z,90.20
2018-07-27T22:55:51.654Z,90.50
2018-07-27T23:00:47.873Z,90.70
2018-07-27T23:03:16.142Z,90.80
2018-07-27T23:05:44.651Z,91.00
2018-07-27T23:08:12.933Z,91.00
2018-07-27T23:10:41.175Z,91.00
2018-07-27T23:13:09.356Z,91.00
2018-07-27T23:15:37.577Z,91.00
2018-07-27T23:18:05.879Z,90.90
2018-07-27T23:20:34.255Z,91.50
2018-07-27T23:23:02.454Z,91.40
2018-07-27T23:25:30.705Z,91.60
2018-07-27T23:27:59.203Z,91.90
2018-07-27T23:30:27.391Z,92.10
2018-07-27T23:32:55.636Z,92.20
2018-07-27T23:35:23.857Z,92.50
2018-07-27T23:37:52.089Z,92.50
2018-07-27T23:40:20.317Z,92.40
2018-07-27T23:45:16.523Z,92.70
2018-07-27T23:47:44.758Z,92.80
2018-07-27T23:50:12.990Z,93.10
2018-07-27T23:52:41.213Z,93.20
2018-07-27T23:55:09.469Z,92.90
2018-07-27T23:57:37.701Z,93.20
